sensor_id;sensor_type;location;lat;lon;timestamp;temperature;humidity
17565;DHT22;62994;52.126;5.596;2022-11-20T00:01:17;1.10;99.90
17565;DHT22;62994;52.126;5.596;2022-11-20T00:03:44;1.20;99.90
17565;DHT22;62994;52.126;5.596;2022-11-20T00:06:13;1.20;99.90
17565;DHT22;62994;52.126;5.596;2022-11-20T00:08:41;1.30;99.90
17565;DHT22;62994;52.126;5.596;2022-11-20T00:11:13;1.20;99.90
17565;DHT22;62994;52.126;5.596;2022-11-20T00:13:42;1.10;99.90
17565;DHT22;62994;52.126;5.596;2022-11-20T00:16:18;1.10;99.90
17565;DHT22;62994;52.126;5.596;2022-11-20T00:18:46;1.10;99.90
17565;DHT22;62994;52.126;5.596;2022-11-20T00:21:15;1.10;99.90
17565;DHT22;62994;52.126;5.596;2022-11-20T00:23:42;1.00;99.90
17565;DHT22;62994;52.126;5.596;2022-11-20T00:26:14;1.00;99.90
17565;DHT22;62994;52.126;5.596;2022-11-20T00:28:51;1.00;99.90
17565;DHT22;62994;52.126;5.596;2022-11-20T00:31:19;1.00;99.90
17565;DHT22;62994;52.126;5.596;2022-11-20T00:33:47;1.00;99.90
17565;DHT22;62994;52.126;5.596;2022-11-20T00:36:15;1.00;99.90
17565;DHT22;62994;52.126;5.596;2022-11-20T00:38:43;1.00;99.90
17565;DHT22;62994;52.126;5.596;2022-11-20T00:41:15;0.90;99.90
17565;DHT22;62994;52.126;5.596;2022-11-20T00:43:42;0.90;99.90
17565;DHT22;62994;52.126;5.596;2022-11-20T00:46:13;0.90;99.90
17565;DHT22;62994;52.126;5.596;2022-11-20T00:48:41;0.90;99.90
17565;DHT22;62994;52.126;5.596;2022-11-20T00:51:08;0.90;99.90
17565;DHT22;62994;52.126;5.596;2022-11-20T00:53:35;0.90;99.90
17565;DHT22;62994;52.126;5.596;2022-11-20T00:56:04;0.80;99.90
17565;DHT22;62994;52.126;5.596;2022-11-20T00:58:39;0.80;99.90
17565;DHT22;62994;52.126;5.596;2022-11-20T01:01:08;0.80;99.90
17565;DHT22;62994;52.126;5.596;2022-11-20T01:03:39;0.80;99.90
17565;DHT22;62994;52.126;5.596;2022-11-20T01:06:08;0.80;99.90
17565;DHT22;62994;52.126;5.596;2022-11-20T01:08:36;0.80;99.90
17565;DHT22;62994;52.126;5.596;2022-11-20T01:11:06;0.80;99.90
17565;DHT22;62994;52.126;5.596;2022-11-20T01:13:33;0.70;99.90
17565;DHT22;62994;52.126;5.596;2022-11-20T01:16:08;0.70;99.90
17565;DHT22;62994;52.126;5.596;2022-11-20T01:18:37;0.70;99.90
17565;DHT22;62994;52.126;5.596;2022-11-20T01:21:05;0.70;99.90
17565;DHT22;62994;52.126;5.596;2022-11-20T01:23:33;0.70;99.90
17565;DHT22;62994;52.126;5.596;2022-11-20T01:26:02;0.60;99.90
17565;DHT22;62994;52.126;5.596;2022-11-20T01:28:29;0.70;99.90
17565;DHT22;62994;52.126;5.596;2022-11-20T01:30:58;0.70;99.90
17565;DHT22;62994;52.126;5.596;2022-11-20T01:33:27;0.60;99.90
17565;DHT22;62994;52.126;5.596;2022-11-20T01:36:03;0.60;99.90
17565;DHT22;62994;52.126;5.596;2022-11-20T01:38:30;0.60;99.90
17565;DHT22;62994;52.126;5.596;2022-11-20T01:40:57;0.60;99.90
17565;DHT22;62994;52.126;5.596;2022-11-20T01:43:25;0.60;99.90
17565;DHT22;62994;52.126;5.596;2022-11-20T01:46:13;0.60;99.90
17565;DHT22;62994;52.126;5.596;2022-11-20T01:48:47;0.60;99.90
17565;DHT22;62994;52.126;5.596;2022-11-20T01:51:24;0.50;99.90
17565;DHT22;62994;52.126;5.596;2022-11-20T01:53:56;0.60;99.90
17565;DHT22;62994;52.126;5.596;2022-11-20T01:56:24;0.50;99.90
17565;DHT22;62994;52.126;5.596;2022-11-20T01:58:58;0.50;99.90
17565;DHT22;62994;52.126;5.596;2022-11-20T02:01:25;0.50;99.90
17565;DHT22;62994;52.126;5.596;2022-11-20T02:03:53;0.50;99.90
17565;DHT22;62994;52.126;5.596;2022-11-20T02:06:24;0.50;99.90
17565;DHT22;62994;52.126;5.596;2022-11-20T02:08:54;0.50;99.90
17565;DHT22;62994;52.126;5.596;2022-11-20T02:11:21;0.50;99.90
17565;DHT22;62994;52.126;5.596;2022-11-20T02:13:51;0.50;99.90
17565;DHT22;62994;52.126;5.596;2022-11-20T02:16:25;0.50;99.90
17565;DHT22;62994;52.126;5.596;2022-11-20T02:18:57;0.50;99.90
17565;DHT22;62994;52.126;5.596;2022-11-20T02:21:33;0.50;99.90
17565;DHT22;62994;52.126;5.596;2022-11-20T02:24:08;0.50;99.90
17565;DHT22;62994;52.126;5.596;2022-11-20T02:26:45;0.40;99.90
17565;DHT22;62994;52.126;5.596;2022-11-20T02:29:15;0.40;99.90
17565;DHT22;62994;52.126;5.596;2022-11-20T02:31:48;0.40;99.90
17565;DHT22;62994;52.126;5.596;2022-11-20T02:34:15;0.40;99.90
17565;DHT22;62994;52.126;5.596;2022-11-20T02:36:42;0.40;99.90
17565;DHT22;62994;52.126;5.596;2022-11-20T02:39:13;0.40;99.90
17565;DHT22;62994;52.126;5.596;2022-11-20T02:41:42;0.40;99.90
17565;DHT22;62994;52.126;5.596;2022-11-20T02:44:09;0.40;99.90
17565;DHT22;62994;52.126;5.596;2022-11-20T02:46:36;0.30;99.90
17565;DHT22;62994;52.126;5.596;2022-11-20T02:49:04;0.30;99.90
17565;DHT22;62994;52.126;5.596;2022-11-20T02:51:31;0.30;99.90
17565;DHT22;62994;52.126;5.596;2022-11-20T02:53:59;0.30;99.90
17565;DHT22;62994;52.126;5.596;2022-11-20T02:56:33;0.30;99.90
17565;DHT22;62994;52.126;5.596;2022-11-20T02:59:02;0.30;99.90
17565;DHT22;62994;52.126;5.596;2022-11-20T03:01:30;0.30;99.90
17565;DHT22;62994;52.126;5.596;2022-11-20T03:03:57;0.20;99.90
17565;DHT22;62994;52.126;5.596;2022-11-20T03:06:23;0.20;99.90
17565;DHT22;62994;52.126;5.596;2022-11-20T03:08:50;0.20;99.90
17565;DHT22;62994;52.126;5.596;2022-11-20T03:11:18;0.20;99.90
17565;DHT22;62994;52.126;5.596;2022-11-20T03:13:46;0.20;99.90
17565;DHT22;62994;52.126;5.596;2022-11-20T03:16:15;0.10;99.90
17565;DHT22;62994;52.126;5.596;2022-11-20T03:18:42;0.20;99.90
17565;DHT22;62994;52.126;5.596;2022-11-20T03:21:14;0.20;99.90
17565;DHT22;62994;52.126;5.596;2022-11-20T03:23:41;0.10;99.90
17565;DHT22;62994;52.126;5.596;2022-11-20T03:26:13;0.10;99.90
17565;DHT22;62994;52.126;5.596;2022-11-20T03:28:41;0.10;99.90
17565;DHT22;62994;52.126;5.596;2022-11-20T03:31:12;0.10;99.90
17565;DHT22;62994;52.126;5.596;2022-11-20T03:33:40;0.10;99.90
17565;DHT22;62994;52.126;5.596;2022-11-20T03:36:09;0.10;99.90
17565;DHT22;62994;52.126;5.596;2022-11-20T03:38:36;0.10;99.90
17565;DHT22;62994;52.126;5.596;2022-11-20T03:41:07;0.10;99.90
17565;DHT22;62994;52.126;5.596;2022-11-20T03:43:35;0.00;99.90
17565;DHT22;62994;52.126;5.596;2022-11-20T03:46:03;0.00;99.90
17565;DHT22;62994;52.126;5.596;2022-11-20T03:48:31;0.00;99.90
17565;DHT22;62994;52.126;5.596;2022-11-20T03:51:09;0.00;99.90
17565;DHT22;62994;52.126;5.596;2022-11-20T03:53:45;0.00;99.90
17565;DHT22;62994;52.126;5.596;2022-11-20T03:56:14;0.00;99.90
17565;DHT22;62994;52.126;5.596;2022-11-20T03:58:42;-0.10;99.90
17565;DHT22;62994;52.126;5.596;2022-11-20T04:01:10;-0.10;99.90
17565;DHT22;62994;52.126;5.596;2022-11-20T04:03:43;-0.10;99.90
17565;DHT22;62994;52.126;5.596;2022-11-20T04:06:13;-0.10;99.90
17565;DHT22;62994;52.126;5.596;2022-11-20T04:08:47;-0.20;99.90
17565;DHT22;62994;52.126;5.596;2022-11-20T04:11:16;-0.10;99.90
17565;DHT22;62994;52.126;5.596;2022-11-20T04:13:46;-0.20;99.90
17565;DHT22;62994;52.126;5.596;2022-11-20T04:16:14;-0.20;99.90
17565;DHT22;62994;52.126;5.596;2022-11-20T04:18:43;-0.20;99.90
17565;DHT22;62994;52.126;5.596;2022-11-20T04:21:23;-0.20;99.90
17565;DHT22;62994;52.126;5.596;2022-11-20T04:23:51;-0.10;99.90
17565;DHT22;62994;52.126;5.596;2022-11-20T04:26:21;-0.20;99.90
17565;DHT22;62994;52.126;5.596;2022-11-20T04:28:58;-0.20;99.90
17565;DHT22;62994;52.126;5.596;2022-11-20T04:31:29;-0.20;99.90
17565;DHT22;62994;52.126;5.596;2022-11-20T04:34:11;-0.20;99.90
17565;DHT22;62994;52.126;5.596;2022-11-20T04:36:39;-0.30;99.90
17565;DHT22;62994;52.126;5.596;2022-11-20T04:39:14;-0.30;99.90
17565;DHT22;62994;52.126;5.596;2022-11-20T04:41:42;-0.30;99.90
17565;DHT22;62994;52.126;5.596;2022-11-20T04:44:10;-0.30;99.90
17565;DHT22;62994;52.126;5.596;2022-11-20T04:46:40;-0.30;99.90
17565;DHT22;62994;52.126;5.596;2022-11-20T04:49:09;-0.40;99.90
17565;DHT22;62994;52.126;5.596;2022-11-20T04:51:37;-0.30;99.90
17565;DHT22;62994;52.126;5.596;2022-11-20T04:54:05;-0.40;99.90
17565;DHT22;62994;52.126;5.596;2022-11-20T04:56:37;-0.40;99.90
17565;DHT22;62994;52.126;5.596;2022-11-20T04:59:04;-0.40;99.90
17565;DHT22;62994;52.126;5.596;2022-11-20T05:01:41;-0.50;99.90
17565;DHT22;62994;52.126;5.596;2022-11-20T05:04:09;-0.40;99.90
17565;DHT22;62994;52.126;5.596;2022-11-20T05:06:36;-0.40;99.90
17565;DHT22;62994;52.126;5.596;2022-11-20T05:09:05;-0.50;99.90
17565;DHT22;62994;52.126;5.596;2022-11-20T05:11:35;-0.40;99.90
17565;DHT22;62994;52.126;5.596;2022-11-20T05:14:07;-0.40;99.90
17565;DHT22;62994;52.126;5.596;2022-11-20T05:16:39;-0.50;99.90
17565;DHT22;62994;52.126;5.596;2022-11-20T05:19:13;-0.50;99.90
17565;DHT22;62994;52.126;5.596;2022-11-20T05:21:40;-0.50;99.90
17565;DHT22;62994;52.126;5.596;2022-11-20T05:24:07;-0.50;99.90
17565;DHT22;62994;52.126;5.596;2022-11-20T05:26:42;-0.50;99.90
17565;DHT22;62994;52.126;5.596;2022-11-20T05:29:11;-0.60;99.90
17565;DHT22;62994;52.126;5.596;2022-11-20T05:31:39;-0.50;99.90
17565;DHT22;62994;52.126;5.596;2022-11-20T05:34:11;-0.50;99.90
17565;DHT22;62994;52.126;5.596;2022-11-20T05:36:38;-0.60;99.90
17565;DHT22;62994;52.126;5.596;2022-11-20T05:39:05;-0.60;99.90
17565;DHT22;62994;52.126;5.596;2022-11-20T05:41:37;-0.60;99.90
17565;DHT22;62994;52.126;5.596;2022-11-20T05:44:04;-0.60;99.90
17565;DHT22;62994;52.126;5.596;2022-11-20T05:46:33;-0.60;99.90
17565;DHT22;62994;52.126;5.596;2022-11-20T05:49:00;-0.60;99.90
17565;DHT22;62994;52.126;5.596;2022-11-20T05:51:28;-0.60;99.90
17565;DHT22;62994;52.126;5.596;2022-11-20T05:53:58;-0.60;99.90
17565;DHT22;62994;52.126;5.596;2022-11-20T05:56:26;-0.70;99.90
17565;DHT22;62994;52.126;5.596;2022-11-20T05:58:56;-0.60;99.90
17565;DHT22;62994;52.126;5.596;2022-11-20T06:01:26;-0.60;99.90
17565;DHT22;62994;52.126;5.596;2022-11-20T06:03:57;-0.70;99.90
17565;DHT22;62994;52.126;5.596;2022-11-20T06:06:36;-0.60;99.90
17565;DHT22;62994;52.126;5.596;2022-11-20T06:09:07;-0.70;99.90
17565;DHT22;62994;52.126;5.596;2022-11-20T06:11:34;-0.60;99.90
17565;DHT22;62994;52.126;5.596;2022-11-20T06:14:01;-0.70;99.90
17565;DHT22;62994;52.126;5.596;2022-11-20T06:16:35;-0.70;99.90
17565;DHT22;62994;52.126;5.596;2022-11-20T06:19:03;-0.70;99.90
17565;DHT22;62994;52.126;5.596;2022-11-20T06:21:34;-0.70;99.90
17565;DHT22;62994;52.126;5.596;2022-11-20T06:24:01;-0.70;99.90
17565;DHT22;62994;52.126;5.596;2022-11-20T06:26:28;-0.70;99.90
17565;DHT22;62994;52.126;5.596;2022-11-20T06:29:00;-0.80;99.90
17565;DHT22;62994;52.126;5.596;2022-11-20T06:31:27;-0.70;99.90
17565;DHT22;62994;52.126;5.596;2022-11-20T06:33:58;-0.80;99.90
17565;DHT22;62994;52.126;5.596;2022-11-20T06:36:35;-0.80;99.90
17565;DHT22;62994;52.126;5.596;2022-11-20T06:39:02;-0.80;99.90
17565;DHT22;62994;52.126;5.596;2022-11-20T06:41:55;-0.80;99.90
17565;DHT22;62994;52.126;5.596;2022-11-20T06:44:39;-0.80;99.90
17565;DHT22;62994;52.126;5.596;2022-11-20T06:47:06;-0.80;99.90
17565;DHT22;62994;52.126;5.596;2022-11-20T06:49:39;-0.90;99.90
17565;DHT22;62994;52.126;5.596;2022-11-20T06:53:42;-0.90;99.90
17565;DHT22;62994;52.126;5.596;2022-11-20T06:55:29;-0.90;99.90
17565;DHT22;62994;52.126;5.596;2022-11-20T06:57:56;-0.90;99.90
17565;DHT22;62994;52.126;5.596;2022-11-20T07:00:24;-0.90;99.90
17565;DHT22;62994;52.126;5.596;2022-11-20T07:02:51;-0.90;99.90
17565;DHT22;62994;52.126;5.596;2022-11-20T07:05:20;-0.90;99.90
17565;DHT22;62994;52.126;5.596;2022-11-20T07:07:55;-0.90;99.90
17565;DHT22;62994;52.126;5.596;2022-11-20T07:13:44;-0.90;99.90
17565;DHT22;62994;52.126;5.596;2022-11-20T07:16:11;-0.90;99.90
17565;DHT22;62994;52.126;5.596;2022-11-20T07:18:38;-1.00;99.90
17565;DHT22;62994;52.126;5.596;2022-11-20T07:21:08;-1.00;99.90
17565;DHT22;62994;52.126;5.596;2022-11-20T07:23:37;-1.00;99.90
17565;DHT22;62994;52.126;5.596;2022-11-20T07:26:05;-1.00;99.90
17565;DHT22;62994;52.126;5.596;2022-11-20T07:28:33;-1.00;99.90
17565;DHT22;62994;52.126;5.596;2022-11-20T07:31:00;-1.00;99.90
17565;DHT22;62994;52.126;5.596;2022-11-20T07:33:30;-1.00;99.90
17565;DHT22;62994;52.126;5.596;2022-11-20T07:36:00;-1.00;99.90
17565;DHT22;62994;52.126;5.596;2022-11-20T07:38:33;-1.00;99.90
17565;DHT22;62994;52.126;5.596;2022-11-20T07:41:02;-1.00;99.90
17565;DHT22;62994;52.126;5.596;2022-11-20T07:43:38;-1.00;99.90
17565;DHT22;62994;52.126;5.596;2022-11-20T07:46:04;-1.00;99.90
17565;DHT22;62994;52.126;5.596;2022-11-20T07:48:53;-1.00;99.90
17565;DHT22;62994;52.126;5.596;2022-11-20T07:52:14;-1.00;99.90
17565;DHT22;62994;52.126;5.596;2022-11-20T07:54:25;-1.00;99.90
17565;DHT22;62994;52.126;5.596;2022-11-20T07:57:04;-1.00;99.90
17565;DHT22;62994;52.126;5.596;2022-11-20T07:59:31;-1.00;99.90
17565;DHT22;62994;52.126;5.596;2022-11-20T08:02:10;-1.00;99.90
17565;DHT22;62994;52.126;5.596;2022-11-20T08:04:39;-1.00;99.90
17565;DHT22;62994;52.126;5.596;2022-11-20T08:07:06;-1.00;99.90
17565;DHT22;62994;52.126;5.596;2022-11-20T08:09:36;-1.00;99.90
17565;DHT22;62994;52.126;5.596;2022-11-20T08:12:05;-0.90;99.90
17565;DHT22;62994;52.126;5.596;2022-11-20T08:14:49;-0.90;99.90
17565;DHT22;62994;52.126;5.596;2022-11-20T08:17:19;-0.80;99.90
17565;DHT22;62994;52.126;5.596;2022-11-20T08:19:50;-0.90;99.90
17565;DHT22;62994;52.126;5.596;2022-11-20T08:22:20;-0.90;99.90
17565;DHT22;62994;52.126;5.596;2022-11-20T08:24:47;-0.90;99.90
17565;DHT22;62994;52.126;5.596;2022-11-20T08:27:16;-0.90;99.90
17565;DHT22;62994;52.126;5.596;2022-11-20T08:29:43;-0.80;99.90
17565;DHT22;62994;52.126;5.596;2022-11-20T08:32:10;-0.90;99.90
17565;DHT22;62994;52.126;5.596;2022-11-20T08:34:43;-0.80;99.90
17565;DHT22;62994;52.126;5.596;2022-11-20T08:37:16;-0.80;99.90
17565;DHT22;62994;52.126;5.596;2022-11-20T08:39:46;-0.80;99.90
17565;DHT22;62994;52.126;5.596;2022-11-20T08:42:22;-0.70;99.90
17565;DHT22;62994;52.126;5.596;2022-11-20T08:44:50;-0.70;99.90
17565;DHT22;62994;52.126;5.596;2022-11-20T08:47:20;-0.80;99.90
17565;DHT22;62994;52.126;5.596;2022-11-20T08:49:47;-0.80;99.90
17565;DHT22;62994;52.126;5.596;2022-11-20T08:52:14;-0.80;99.90
17565;DHT22;62994;52.126;5.596;2022-11-20T08:54:42;-0.70;99.90
17565;DHT22;62994;52.126;5.596;2022-11-20T08:57:12;-0.70;99.90
17565;DHT22;62994;52.126;5.596;2022-11-20T08:59:45;-0.60;99.90
17565;DHT22;62994;52.126;5.596;2022-11-20T09:02:12;-0.60;99.90
17565;DHT22;62994;52.126;5.596;2022-11-20T09:04:44;-0.70;99.90
17565;DHT22;62994;52.126;5.596;2022-11-20T09:07:28;-0.70;99.90
17565;DHT22;62994;52.126;5.596;2022-11-20T09:09:56;-0.60;99.90
17565;DHT22;62994;52.126;5.596;2022-11-20T09:12:25;-0.60;99.90
17565;DHT22;62994;52.126;5.596;2022-11-20T09:14:56;-0.50;99.90
17565;DHT22;62994;52.126;5.596;2022-11-20T09:17:25;-0.50;99.90
17565;DHT22;62994;52.126;5.596;2022-11-20T09:19:54;-0.50;99.90
17565;DHT22;62994;52.126;5.596;2022-11-20T09:22:41;-0.50;99.90
17565;DHT22;62994;52.126;5.596;2022-11-20T09:25:18;-0.40;99.90
17565;DHT22;62994;52.126;5.596;2022-11-20T09:27:54;-0.30;99.90
17565;DHT22;62994;52.126;5.596;2022-11-20T09:30:28;-0.30;99.90
17565;DHT22;62994;52.126;5.596;2022-11-20T09:33:06;-0.30;99.90
17565;DHT22;62994;52.126;5.596;2022-11-20T09:35:35;-0.30;99.90
17565;DHT22;62994;52.126;5.596;2022-11-20T09:38:06;-0.20;99.90
17565;DHT22;62994;52.126;5.596;2022-11-20T09:40:39;-0.20;99.90
17565;DHT22;62994;52.126;5.596;2022-11-20T09:43:14;-0.20;99.90
17565;DHT22;62994;52.126;5.596;2022-11-20T09:46:12;-0.10;99.90
17565;DHT22;62994;52.126;5.596;2022-11-20T09:49:04;-0.10;99.90
17565;DHT22;62994;52.126;5.596;2022-11-20T09:51:41;-0.10;99.90
17565;DHT22;62994;52.126;5.596;2022-11-20T09:54:17;0.00;99.90
17565;DHT22;62994;52.126;5.596;2022-11-20T09:56:54;0.00;99.90
17565;DHT22;62994;52.126;5.596;2022-11-20T09:59:37;0.00;99.90
17565;DHT22;62994;52.126;5.596;2022-11-20T10:02:17;0.10;99.90
17565;DHT22;62994;52.126;5.596;2022-11-20T10:04:55;0.20;99.90
17565;DHT22;62994;52.126;5.596;2022-11-20T10:07:33;0.20;99.90
17565;DHT22;62994;52.126;5.596;2022-11-20T10:10:16;0.20;99.90
17565;DHT22;62994;52.126;5.596;2022-11-20T10:12:57;0.30;99.90
17565;DHT22;62994;52.126;5.596;2022-11-20T10:15:37;0.30;99.90
17565;DHT22;62994;52.126;5.596;2022-11-20T10:18:27;0.30;99.90
17565;DHT22;62994;52.126;5.596;2022-11-20T10:21:23;0.30;99.90
17565;DHT22;62994;52.126;5.596;2022-11-20T10:24:21;0.40;99.90
17565;DHT22;62994;52.126;5.596;2022-11-20T10:27:02;0.40;99.90
17565;DHT22;62994;52.126;5.596;2022-11-20T10:29:33;0.50;99.90
17565;DHT22;62994;52.126;5.596;2022-11-20T10:32:04;0.50;99.90
17565;DHT22;62994;52.126;5.596;2022-11-20T10:34:54;0.60;99.90
17565;DHT22;62994;52.126;5.596;2022-11-20T10:37:32;0.60;99.90
17565;DHT22;62994;52.126;5.596;2022-11-20T10:40:39;0.70;99.90
17565;DHT22;62994;52.126;5.596;2022-11-20T10:43:19;0.70;99.90
17565;DHT22;62994;52.126;5.596;2022-11-20T10:46:34;0.70;99.90
17565;DHT22;62994;52.126;5.596;2022-11-20T10:48:55;0.80;99.90
17565;DHT22;62994;52.126;5.596;2022-11-20T10:51:44;0.80;99.90
17565;DHT22;62994;52.126;5.596;2022-11-20T10:57:53;0.90;99.90
17565;DHT22;62994;52.126;5.596;2022-11-20T11:00:25;0.90;99.90
17565;DHT22;62994;52.126;5.596;2022-11-20T11:03:20;1.00;99.90
17565;DHT22;62994;52.126;5.596;2022-11-20T11:06:00;1.00;99.90
17565;DHT22;62994;52.126;5.596;2022-11-20T11:08:53;1.00;99.90
17565;DHT22;62994;52.126;5.596;2022-11-20T11:11:46;1.10;99.90
17565;DHT22;62994;52.126;5.596;2022-11-20T11:14:53;1.20;99.90
17565;DHT22;62994;52.126;5.596;2022-11-20T11:17:36;1.20;99.90
17565;DHT22;62994;52.126;5.596;2022-11-20T11:20:06;1.20;99.90
17565;DHT22;62994;52.126;5.596;2022-11-20T11:22:49;1.30;99.90
17565;DHT22;62994;52.126;5.596;2022-11-20T11:25:35;1.30;99.90
17565;DHT22;62994;52.126;5.596;2022-11-20T11:28:04;1.40;99.90
17565;DHT22;62994;52.126;5.596;2022-11-20T11:30:43;1.40;99.90
17565;DHT22;62994;52.126;5.596;2022-11-20T11:33:18;1.40;99.90
17565;DHT22;62994;52.126;5.596;2022-11-20T11:35:48;1.50;99.90
17565;DHT22;62994;52.126;5.596;2022-11-20T11:38:29;1.60;99.90
17565;DHT22;62994;52.126;5.596;2022-11-20T11:41:22;1.50;99.90
17565;DHT22;62994;52.126;5.596;2022-11-20T11:44:14;1.70;99.90
17565;DHT22;62994;52.126;5.596;2022-11-20T11:47:00;1.60;99.90
17565;DHT22;62994;52.126;5.596;2022-11-20T11:49:32;1.70;99.90
17565;DHT22;62994;52.126;5.596;2022-11-20T11:52:13;1.70;99.90
17565;DHT22;62994;52.126;5.596;2022-11-20T11:54:49;1.80;99.90
17565;DHT22;62994;52.126;5.596;2022-11-20T11:57:40;1.80;99.90
17565;DHT22;62994;52.126;5.596;2022-11-20T12:00:20;1.80;99.90
17565;DHT22;62994;52.126;5.596;2022-11-20T12:03:03;1.80;99.90
17565;DHT22;62994;52.126;5.596;2022-11-20T12:05:40;1.90;99.90
17565;DHT22;62994;52.126;5.596;2022-11-20T12:08:23;1.90;99.90
17565;DHT22;62994;52.126;5.596;2022-11-20T12:11:02;1.90;99.90
17565;DHT22;62994;52.126;5.596;2022-11-20T12:13:48;1.90;99.90
17565;DHT22;62994;52.126;5.596;2022-11-20T12:16:21;2.00;99.90
17565;DHT22;62994;52.126;5.596;2022-11-20T12:19:01;2.00;99.90
17565;DHT22;62994;52.126;5.596;2022-11-20T12:21:34;2.10;99.90
17565;DHT22;62994;52.126;5.596;2022-11-20T12:24:31;2.00;99.90
17565;DHT22;62994;52.126;5.596;2022-11-20T12:27:25;2.10;99.90
17565;DHT22;62994;52.126;5.596;2022-11-20T12:30:19;2.10;99.90
17565;DHT22;62994;52.126;5.596;2022-11-20T12:33:28;2.10;99.90
17565;DHT22;62994;52.126;5.596;2022-11-20T12:36:30;2.10;99.90
17565;DHT22;62994;52.126;5.596;2022-11-20T12:39:21;2.20;99.90
17565;DHT22;62994;52.126;5.596;2022-11-20T12:42:22;2.20;99.90
17565;DHT22;62994;52.126;5.596;2022-11-20T12:49:05;2.40;99.90
17565;DHT22;62994;52.126;5.596;2022-11-20T12:51:53;2.50;99.90
17565;DHT22;62994;52.126;5.596;2022-11-20T12:55:15;2.50;99.90
17565;DHT22;62994;52.126;5.596;2022-11-20T12:58:00;2.50;99.90
17565;DHT22;62994;52.126;5.596;2022-11-20T13:00:32;2.50;99.90
17565;DHT22;62994;52.126;5.596;2022-11-20T13:03:37;2.50;99.90
17565;DHT22;62994;52.126;5.596;2022-11-20T13:06:20;2.50;99.90
17565;DHT22;62994;52.126;5.596;2022-11-20T13:08:52;2.50;99.90
17565;DHT22;62994;52.126;5.596;2022-11-20T13:11:34;2.60;99.90
17565;DHT22;62994;52.126;5.596;2022-11-20T13:14:16;2.60;99.90
17565;DHT22;62994;52.126;5.596;2022-11-20T13:16:51;2.60;99.90
17565;DHT22;62994;52.126;5.596;2022-11-20T13:19:21;2.70;99.90
17565;DHT22;62994;52.126;5.596;2022-11-20T13:21:55;2.70;99.90
17565;DHT22;62994;52.126;5.596;2022-11-20T13:24:39;2.60;99.90
17565;DHT22;62994;52.126;5.596;2022-11-20T13:27:21;2.70;99.90
17565;DHT22;62994;52.126;5.596;2022-11-20T13:30:13;2.70;99.90
17565;DHT22;62994;52.126;5.596;2022-11-20T13:32:51;2.70;99.90
17565;DHT22;62994;52.126;5.596;2022-11-20T13:35:33;2.80;99.90
17565;DHT22;62994;52.126;5.596;2022-11-20T13:38:24;2.80;99.90
17565;DHT22;62994;52.126;5.596;2022-11-20T13:40:55;2.80;99.90
17565;DHT22;62994;52.126;5.596;2022-11-20T13:43:47;2.80;99.90
17565;DHT22;62994;52.126;5.596;2022-11-20T13:46:17;2.80;99.90
17565;DHT22;62994;52.126;5.596;2022-11-20T13:48:58;2.90;99.90
17565;DHT22;62994;52.126;5.596;2022-11-20T13:51:55;2.90;99.90
17565;DHT22;62994;52.126;5.596;2022-11-20T13:55:04;2.90;99.90
17565;DHT22;62994;52.126;5.596;2022-11-20T14:00:58;3.00;99.90
17565;DHT22;62994;52.126;5.596;2022-11-20T14:03:50;3.10;99.90
17565;DHT22;62994;52.126;5.596;2022-11-20T14:06:29;3.00;99.90
17565;DHT22;62994;52.126;5.596;2022-11-20T14:09:01;3.10;99.90
17565;DHT22;62994;52.126;5.596;2022-11-20T14:11:35;3.10;99.90
17565;DHT22;62994;52.126;5.596;2022-11-20T14:14:10;3.10;99.90
17565;DHT22;62994;52.126;5.596;2022-11-20T14:16:50;3.10;99.90
17565;DHT22;62994;52.126;5.596;2022-11-20T14:22:37;3.10;99.90
17565;DHT22;62994;52.126;5.596;2022-11-20T14:25:30;3.10;99.90
17565;DHT22;62994;52.126;5.596;2022-11-20T14:28:11;3.10;99.90
17565;DHT22;62994;52.126;5.596;2022-11-20T14:30:57;3.20;99.90
17565;DHT22;62994;52.126;5.596;2022-11-20T14:33:30;3.10;99.90
17565;DHT22;62994;52.126;5.596;2022-11-20T14:36:05;3.20;99.90
17565;DHT22;62994;52.126;5.596;2022-11-20T14:38:56;3.20;99.90
17565;DHT22;62994;52.126;5.596;2022-11-20T14:41:49;3.20;99.90
17565;DHT22;62994;52.126;5.596;2022-11-20T14:47:39;3.20;99.90
17565;DHT22;62994;52.126;5.596;2022-11-20T14:50:19;3.20;99.90
17565;DHT22;62994;52.126;5.596;2022-11-20T14:53:00;3.20;99.90
17565;DHT22;62994;52.126;5.596;2022-11-20T14:55:40;3.20;99.90
17565;DHT22;62994;52.126;5.596;2022-11-20T14:58:23;3.30;99.90
17565;DHT22;62994;52.126;5.596;2022-11-20T15:01:02;3.30;99.90
17565;DHT22;62994;52.126;5.596;2022-11-20T15:06:35;3.30;99.90
17565;DHT22;62994;52.126;5.596;2022-11-20T15:09:15;3.30;99.90
17565;DHT22;62994;52.126;5.596;2022-11-20T15:11:55;3.30;99.90
17565;DHT22;62994;52.126;5.596;2022-11-20T15:17:43;3.40;99.90
17565;DHT22;62994;52.126;5.596;2022-11-20T15:20:39;3.40;99.90
17565;DHT22;62994;52.126;5.596;2022-11-20T15:23:17;3.40;99.90
17565;DHT22;62994;52.126;5.596;2022-11-20T15:26:03;3.40;99.90
17565;DHT22;62994;52.126;5.596;2022-11-20T15:28:51;3.40;99.90
17565;DHT22;62994;52.126;5.596;2022-11-20T15:31:30;3.40;99.90
17565;DHT22;62994;52.126;5.596;2022-11-20T15:34:14;3.40;99.90
17565;DHT22;62994;52.126;5.596;2022-11-20T15:36:48;3.40;99.90
17565;DHT22;62994;52.126;5.596;2022-11-20T15:39:22;3.50;99.90
17565;DHT22;62994;52.126;5.596;2022-11-20T15:41:52;3.50;99.90
17565;DHT22;62994;52.126;5.596;2022-11-20T15:44:39;3.50;99.90
17565;DHT22;62994;52.126;5.596;2022-11-20T15:47:14;3.50;99.90
17565;DHT22;62994;52.126;5.596;2022-11-20T15:50:01;3.50;99.90
17565;DHT22;62994;52.126;5.596;2022-11-20T15:52:35;3.50;99.90
17565;DHT22;62994;52.126;5.596;2022-11-20T15:57:50;3.50;99.90
17565;DHT22;62994;52.126;5.596;2022-11-20T16:00:32;3.50;99.90
17565;DHT22;62994;52.126;5.596;2022-11-20T16:03:07;3.50;99.90
17565;DHT22;62994;52.126;5.596;2022-11-20T16:05:34;3.50;99.90
17565;DHT22;62994;52.126;5.596;2022-11-20T16:08:03;3.60;99.90
17565;DHT22;62994;52.126;5.596;2022-11-20T16:10:33;3.60;99.90
17565;DHT22;62994;52.126;5.596;2022-11-20T16:13:12;3.70;99.90
17565;DHT22;62994;52.126;5.596;2022-11-20T16:16:03;3.70;99.90
17565;DHT22;62994;52.126;5.596;2022-11-20T16:18:33;3.70;99.90
17565;DHT22;62994;52.126;5.596;2022-11-20T16:21:11;3.70;99.90
17565;DHT22;62994;52.126;5.596;2022-11-20T16:23:43;3.70;99.90
17565;DHT22;62994;52.126;5.596;2022-11-20T16:26:20;3.70;99.90
17565;DHT22;62994;52.126;5.596;2022-11-20T16:28:57;3.70;99.90
17565;DHT22;62994;52.126;5.596;2022-11-20T16:31:26;3.70;99.90
17565;DHT22;62994;52.126;5.596;2022-11-20T16:34:00;3.70;99.90
17565;DHT22;62994;52.126;5.596;2022-11-20T16:36:35;3.70;99.90
17565;DHT22;62994;52.126;5.596;2022-11-20T16:39:12;3.60;99.90
17565;DHT22;62994;52.126;5.596;2022-11-20T16:41:44;3.70;99.90
17565;DHT22;62994;52.126;5.596;2022-11-20T16:44:12;3.70;99.90
17565;DHT22;62994;52.126;5.596;2022-11-20T16:46:44;3.70;99.90
17565;DHT22;62994;52.126;5.596;2022-11-20T16:49:12;3.70;99.90
17565;DHT22;62994;52.126;5.596;2022-11-20T16:51:43;3.70;99.90
17565;DHT22;62994;52.126;5.596;2022-11-20T16:54:29;3.70;99.90
17565;DHT22;62994;52.126;5.596;2022-11-20T16:57:03;3.70;99.90
17565;DHT22;62994;52.126;5.596;2022-11-20T16:59:36;3.70;99.90